EHGG/GRQ METAR and TAF weather

Enter ICAO airport designator
Station Type Date Time Source
EHGG METAR 2019/06/26 22:25 UTC NOAA

EHGG 262225Z AUTO 01011KT 320V040 9999 OVC016 14/11 Q1028


Station Type Date Time Source
EHGG Decoded METAR 2019/06/26 22:25 UTC NOAA

Groningen Airport Eelde, Netherlands (EHGG) 53-08N 006-35E 4M
Jun 26, 2019 - 06:25 PM EDT / 2019.06.26 2225 UTC
Wind: from the N (010 degrees) at 13 MPH (11 KT) (direction variable):0
Visibility: greater than 7 mile(s):0
Sky conditions: overcast
Temperature: 57 F (14 C)
Dew Point: 51 F (11 C)
Relative Humidity: 82%
Pressure (altimeter): 30.36 in. Hg (1028 hPa)
ob: EHGG 262225Z AUTO 01011KT 320V040 9999 OVC016 14/11 Q1028
cycle: 22

Station Type Date Time Source
EHGG TAF 2019/06/26 18:27 UTC NOAA

TAF EHGG 261715Z 2618/2724 35011KT 9999 BKN016 PROB30
TEMPO 2618/2623 BKN012

Example: see airport list